createdAt,value
2017-11-23T00:01:51.920Z,22.60
2017-11-23T00:04:19.526Z,22.50
2017-11-23T00:06:47.916Z,22.50
2017-11-23T00:09:15.597Z,22.50
2017-11-23T00:11:44.206Z,22.60
2017-11-23T00:14:12.078Z,22.50
2017-11-23T00:16:39.635Z,22.50
2017-11-23T00:19:07.180Z,22.50
2017-11-23T00:21:34.779Z,22.50
2017-11-23T00:24:02.329Z,22.60
2017-11-23T00:26:29.921Z,22.50
2017-11-23T00:28:58.282Z,22.50
2017-11-23T00:31:25.826Z,22.50
2017-11-23T00:33:53.481Z,22.50
2017-11-23T00:36:21.336Z,22.50
2017-11-23T00:38:48.958Z,22.50
2017-11-23T00:41:16.506Z,22.50
2017-11-23T00:43:44.100Z,22.50
2017-11-23T00:46:12.482Z,22.50
2017-11-23T00:48:40.124Z,22.50
2017-11-23T00:51:08.472Z,22.50
2017-11-23T00:53:36.020Z,22.50
2017-11-23T00:56:03.648Z,22.50
2017-11-23T00:58:31.190Z,22.50
2017-11-23T01:00:59.519Z,22.50
2017-11-23T01:03:27.220Z,22.50
2017-11-23T01:05:55.548Z,22.50
2017-11-23T01:08:23.123Z,22.50
2017-11-23T01:10:50.733Z,22.50
2017-11-23T01:13:19.036Z,22.50
2017-11-23T01:15:46.636Z,22.50
2017-11-23T01:18:14.211Z,22.50
2017-11-23T01:20:41.776Z,22.50
2017-11-23T01:23:10.087Z,22.50
2017-11-23T01:25:37.668Z,22.50
2017-11-23T01:28:05.196Z,22.50
2017-11-23T01:30:32.808Z,22.50
2017-11-23T01:33:00.378Z,22.40
2017-11-23T01:35:28.680Z,22.50
2017-11-23T01:37:57.020Z,22.40
2017-11-23T01:40:24.556Z,22.40
2017-11-23T01:42:52.259Z,22.40
2017-11-23T01:45:19.871Z,22.40
2017-11-23T01:47:47.731Z,22.50
2017-11-23T01:50:15.340Z,22.40
2017-11-23T01:52:42.968Z,22.40
2017-11-23T01:55:10.732Z,22.40
2017-11-23T01:57:38.332Z,22.40
2017-11-23T02:00:06.684Z,22.40
2017-11-23T02:02:34.248Z,22.40
2017-11-23T02:05:01.812Z,22.40
2017-11-23T02:07:29.399Z,22.40
2017-11-23T02:09:57.732Z,22.40
2017-11-23T02:12:25.306Z,22.40
2017-11-23T02:14:52.899Z,22.40
2017-11-23T02:17:21.227Z,22.40
2017-11-23T02:19:49.802Z,22.40
2017-11-23T02:22:17.458Z,22.40
2017-11-23T02:24:45.056Z,22.40
2017-11-23T02:27:12.644Z,22.40
2017-11-23T02:29:40.965Z,22.40
2017-11-23T02:32:08.576Z,22.40
2017-11-23T02:34:37.020Z,22.40
2017-11-23T02:37:04.598Z,22.40
2017-11-23T02:39:32.261Z,22.40
2017-11-23T02:41:59.885Z,22.40
2017-11-23T02:44:27.468Z,22.30
2017-11-23T02:46:55.044Z,22.40
2017-11-23T02:49:22.678Z,22.40
2017-11-23T02:51:50.234Z,22.40
2017-11-23T02:54:17.797Z,22.30
2017-11-23T02:56:45.377Z,22.40
2017-11-23T02:59:12.919Z,22.30
2017-11-23T03:01:40.585Z,22.40
2017-11-23T03:04:08.153Z,22.40
2017-11-23T03:06:35.723Z,22.30
2017-11-23T03:09:03.311Z,22.30
2017-11-23T03:11:31.636Z,22.30
2017-11-23T03:13:59.210Z,22.30
2017-11-23T03:16:26.769Z,22.30
2017-11-23T03:18:54.348Z,22.40
2017-11-23T03:21:21.917Z,22.30
2017-11-23T03:23:50.247Z,22.30
2017-11-23T03:26:17.799Z,22.30
2017-11-23T03:28:45.495Z,22.40
2017-11-23T03:31:13.084Z,22.30
2017-11-23T03:33:41.415Z,22.30
2017-11-23T03:36:09.011Z,22.30
2017-11-23T03:38:37.356Z,22.30
2017-11-23T03:41:04.969Z,22.30
2017-11-23T03:43:32.524Z,22.30
2017-11-23T03:46:00.871Z,22.30
2017-11-23T03:48:28.522Z,22.30
2017-11-23T03:50:56.131Z,22.30
2017-11-23T03:53:23.673Z,22.30
2017-11-23T03:55:52.138Z,22.30
2017-11-23T03:58:19.706Z,22.30
2017-11-23T04:00:48.067Z,22.30
2017-11-23T04:03:16.475Z,22.30
2017-11-23T04:05:44.811Z,22.30
2017-11-23T04:08:12.466Z,22.30
2017-11-23T04:10:40.030Z,22.30
2017-11-23T04:13:07.638Z,22.30
2017-11-23T04:15:36.097Z,22.30
2017-11-23T04:18:03.657Z,22.30
2017-11-23T04:20:31.236Z,22.30
2017-11-23T04:22:59.569Z,22.30
2017-11-23T04:25:27.169Z,22.30
2017-11-23T04:27:55.467Z,22.30
2017-11-23T04:30:23.039Z,22.30
2017-11-23T04:32:50.644Z,22.30
2017-11-23T04:35:18.207Z,22.20
2017-11-23T04:37:45.799Z,22.20
2017-11-23T04:40:13.389Z,22.30
2017-11-23T04:42:40.965Z,22.30
2017-11-23T04:45:08.555Z,22.20
2017-11-23T04:47:37.137Z,22.30
2017-11-23T04:50:04.685Z,22.20
2017-11-23T04:52:32.223Z,22.30
2017-11-23T04:54:59.797Z,22.30
2017-11-23T04:57:27.337Z,22.20
2017-11-23T04:59:55.087Z,22.30
2017-11-23T05:02:22.649Z,22.30
2017-11-23T05:04:50.228Z,22.20
2017-11-23T05:07:17.879Z,22.30
2017-11-23T05:09:45.441Z,22.20
2017-11-23T05:12:12.989Z,22.30
2017-11-23T05:14:40.550Z,22.20
2017-11-23T05:17:08.170Z,22.20
2017-11-23T05:19:36.476Z,22.20
2017-11-23T05:22:04.202Z,22.20
2017-11-23T05:24:32.569Z,22.20
2017-11-23T05:27:00.244Z,22.20
2017-11-23T05:29:28.572Z,22.20
2017-11-23T05:31:56.219Z,22.20
2017-11-23T05:34:23.822Z,22.20
2017-11-23T05:36:51.365Z,22.20
2017-11-23T05:39:18.977Z,22.20
2017-11-23T05:41:46.557Z,22.20
2017-11-23T05:44:14.099Z,22.20
2017-11-23T05:46:41.679Z,22.20
2017-11-23T05:49:09.319Z,22.20
2017-11-23T05:51:37.665Z,22.20
2017-11-23T05:54:05.225Z,22.20
2017-11-23T05:56:34.280Z,22.20
2017-11-23T05:59:01.868Z,22.20
2017-11-23T06:01:29.428Z,22.20
2017-11-23T06:03:56.990Z,22.20
2017-11-23T06:06:25.486Z,22.20
2017-11-23T06:08:53.178Z,22.20
2017-11-23T06:11:20.891Z,22.20
2017-11-23T06:13:48.576Z,22.20
2017-11-23T06:16:16.154Z,22.20
2017-11-23T06:18:43.722Z,22.20
2017-11-23T06:21:11.362Z,22.20
2017-11-23T06:23:39.683Z,22.10
2017-11-23T06:26:07.234Z,22.20
2017-11-23T06:28:35.793Z,22.20
2017-11-23T06:31:04.153Z,22.10
2017-11-23T06:33:31.749Z,22.20
2017-11-23T06:35:59.320Z,22.20
2017-11-23T06:38:26.882Z,22.20
2017-11-23T06:40:54.486Z,22.20
2017-11-23T06:43:22.071Z,22.20
2017-11-23T06:45:50.425Z,22.20
2017-11-23T06:48:18.037Z,22.20
2017-11-23T06:50:45.605Z,22.20
2017-11-23T06:53:13.166Z,22.10
2017-11-23T06:55:40.758Z,22.20
2017-11-23T06:58:08.310Z,22.20
2017-11-23T07:00:35.946Z,22.20
2017-11-23T07:03:03.516Z,22.20
2017-11-23T07:05:31.070Z,22.20
2017-11-23T07:07:58.653Z,22.20
2017-11-23T07:10:26.216Z,22.30
2017-11-23T07:12:53.788Z,22.30
2017-11-23T07:15:21.393Z,22.30
2017-11-23T07:17:54.489Z,22.30
2017-11-23T07:20:22.050Z,22.30
2017-11-23T07:22:49.803Z,22.30
2017-11-23T07:25:17.408Z,22.20
2017-11-23T07:27:44.949Z,22.20
2017-11-23T07:30:12.546Z,22.20
2017-11-23T07:32:40.120Z,22.20
2017-11-23T07:35:08.448Z,22.20
2017-11-23T07:37:36.042Z,22.20
2017-11-23T07:40:03.649Z,22.20
2017-11-23T07:42:32.238Z,22.20
2017-11-23T07:44:59.782Z,22.20
2017-11-23T07:47:27.334Z,22.20
2017-11-23T07:49:54.897Z,22.20
2017-11-23T07:52:22.444Z,22.30
2017-11-23T07:54:50.041Z,22.20
2017-11-23T07:57:17.684Z,22.30
2017-11-23T07:59:46.223Z,22.30
2017-11-23T08:02:13.829Z,22.30
2017-11-23T08:04:41.420Z,22.30
2017-11-23T08:07:09.016Z,22.30
2017-11-23T08:09:37.335Z,22.30
2017-11-23T08:12:04.921Z,22.30
2017-11-23T08:14:32.534Z,22.30
2017-11-23T08:17:00.381Z,22.30
2017-11-23T08:19:29.283Z,22.30
2017-11-23T08:21:56.824Z,22.30
2017-11-23T08:24:26.706Z,22.40
2017-11-23T08:26:54.283Z,22.30
2017-11-23T08:29:21.895Z,22.40
2017-11-23T08:31:49.543Z,22.40
2017-11-23T08:34:17.126Z,22.40
2017-11-23T08:36:44.825Z,22.30
2017-11-23T08:39:12.420Z,22.40
2017-11-23T08:41:39.991Z,22.40
2017-11-23T08:44:07.590Z,22.30
2017-11-23T08:46:36.045Z,22.40
2017-11-23T08:49:03.730Z,22.40
2017-11-23T08:51:31.314Z,22.40
2017-11-23T08:53:58.880Z,22.40
2017-11-23T08:56:26.430Z,22.40
2017-11-23T08:58:54.164Z,22.40
2017-11-23T09:01:21.721Z,22.50
2017-11-23T09:03:49.280Z,22.50
2017-11-23T09:06:16.861Z,22.50
2017-11-23T09:08:44.451Z,22.50
2017-11-23T09:11:12.770Z,22.50
2017-11-23T09:13:40.350Z,22.50
2017-11-23T09:16:07.910Z,22.50
2017-11-23T09:18:35.479Z,22.50
2017-11-23T09:21:03.061Z,22.50
2017-11-23T09:23:30.799Z,22.50
2017-11-23T09:25:58.352Z,22.60
2017-11-23T09:28:25.925Z,22.60
2017-11-23T09:30:54.369Z,22.60
2017-11-23T09:33:21.999Z,22.60
2017-11-23T09:35:50.328Z,22.60
2017-11-23T09:38:17.887Z,22.60
2017-11-23T09:40:45.509Z,22.60
2017-11-23T09:43:13.125Z,22.60
2017-11-23T09:45:40.681Z,22.60
2017-11-23T09:48:08.265Z,22.60
2017-11-23T09:50:35.845Z,22.60
2017-11-23T09:53:03.441Z,22.60
2017-11-23T09:55:31.024Z,22.50
2017-11-23T09:57:58.638Z,22.60
2017-11-23T10:00:26.352Z,22.50
2017-11-23T10:02:54.697Z,22.40
2017-11-23T10:05:22.274Z,22.50
2017-11-23T10:07:49.856Z,22.50
2017-11-23T10:10:17.728Z,22.50
2017-11-23T10:12:45.357Z,22.50
2017-11-23T10:15:13.205Z,22.50
2017-11-23T10:17:40.801Z,22.50
2017-11-23T10:20:08.375Z,22.50
2017-11-23T10:22:35.966Z,22.50
2017-11-23T10:25:03.535Z,22.50
2017-11-23T10:27:31.115Z,22.50
2017-11-23T10:29:59.263Z,22.50
2017-11-23T10:32:26.925Z,22.50
2017-11-23T10:34:54.503Z,22.50
2017-11-23T10:37:27.649Z,22.50
2017-11-23T10:39:55.209Z,22.50
2017-11-23T10:42:23.546Z,22.60
2017-11-23T10:44:51.192Z,22.50
2017-11-23T10:47:18.791Z,22.60
2017-11-23T10:49:46.419Z,22.60
2017-11-23T10:52:14.003Z,22.60
2017-11-23T10:54:41.564Z,22.60
2017-11-23T10:57:09.135Z,22.60
2017-11-23T10:59:36.936Z,22.60
2017-11-23T11:02:04.883Z,22.60
2017-11-23T11:04:33.276Z,22.60
2017-11-23T11:07:01.613Z,22.60
2017-11-23T11:09:29.208Z,22.60
2017-11-23T11:11:57.590Z,22.60
2017-11-23T11:14:26.096Z,22.60
2017-11-23T11:16:53.696Z,22.60
2017-11-23T11:19:21.257Z,22.60
2017-11-23T11:21:48.953Z,22.60
2017-11-23T11:24:17.343Z,22.70
2017-11-23T11:26:44.908Z,22.70
2017-11-23T11:29:12.658Z,22.70
2017-11-23T11:31:40.997Z,22.70
2017-11-23T11:34:08.612Z,22.70
2017-11-23T11:36:36.198Z,22.70
2017-11-23T11:39:03.795Z,22.70
2017-11-23T11:41:31.351Z,22.70
2017-11-23T11:43:58.911Z,22.70
2017-11-23T11:46:27.298Z,22.70
2017-11-23T11:48:55.636Z,22.70
2017-11-23T11:51:23.219Z,22.70
2017-11-23T11:53:50.790Z,22.70
2017-11-23T11:56:19.123Z,22.70
2017-11-23T11:58:46.929Z,22.70
2017-11-23T12:01:15.297Z,22.70
2017-11-23T12:03:42.966Z,22.70
2017-11-23T12:06:11.340Z,22.70
2017-11-23T12:08:39.147Z,22.70
2017-11-23T12:11:06.710Z,22.70
2017-11-23T12:13:34.375Z,22.70
2017-11-23T12:16:13.897Z,22.70
2017-11-23T12:18:54.228Z,22.70
2017-11-23T12:21:33.783Z,22.70
2017-11-23T12:24:11.166Z,22.70
2017-11-23T12:26:38.874Z,22.70
2017-11-23T12:29:18.238Z,22.70
2017-11-23T12:31:45.816Z,22.70
2017-11-23T12:34:13.479Z,22.70
2017-11-23T12:36:42.685Z,22.70
2017-11-23T12:39:10.321Z,22.70
2017-11-23T12:41:37.970Z,22.70
2017-11-23T12:44:05.823Z,22.70
2017-11-23T12:46:33.521Z,22.70
2017-11-23T12:49:01.078Z,22.60
2017-11-23T12:51:28.667Z,22.60
2017-11-23T12:53:56.985Z,22.60
2017-11-23T12:56:24.594Z,22.60
2017-11-23T12:58:52.184Z,22.60
2017-11-23T13:01:19.784Z,22.60
2017-11-23T13:03:47.339Z,22.70
2017-11-23T13:06:14.919Z,22.60
2017-11-23T13:08:42.478Z,22.70
2017-11-23T13:11:10.292Z,22.60
2017-11-23T13:13:37.897Z,22.60
2017-11-23T13:16:05.451Z,22.70
2017-11-23T13:18:32.997Z,22.70
2017-11-23T13:21:00.591Z,22.70
2017-11-23T13:23:28.145Z,22.70
2017-11-23T13:25:56.021Z,22.60
2017-11-23T13:28:23.574Z,22.60
2017-11-23T13:30:51.188Z,22.60
2017-11-23T13:33:18.757Z,22.60
2017-11-23T13:35:46.552Z,22.60
2017-11-23T13:38:14.145Z,22.60
2017-11-23T13:40:42.661Z,22.60
2017-11-23T13:43:10.253Z,22.50
2017-11-23T13:45:37.821Z,22.50
2017-11-23T13:48:05.361Z,22.50
2017-11-23T13:50:33.103Z,22.50
2017-11-23T13:53:00.677Z,22.50
2017-11-23T13:55:28.265Z,22.50
2017-11-23T13:57:55.854Z,22.50
2017-11-23T14:00:23.603Z,22.50
2017-11-23T14:02:51.975Z,22.50
2017-11-23T14:05:19.575Z,22.50
2017-11-23T14:07:47.114Z,22.50
2017-11-23T14:10:15.503Z,22.50
2017-11-23T14:12:43.180Z,22.50
2017-11-23T14:15:10.753Z,22.50
2017-11-23T14:17:38.313Z,22.50
2017-11-23T14:20:05.915Z,22.50
2017-11-23T14:22:33.512Z,22.50
2017-11-23T14:25:01.110Z,22.40
2017-11-23T14:27:28.763Z,22.50
2017-11-23T14:29:56.349Z,22.40
2017-11-23T14:32:23.909Z,22.40
2017-11-23T14:34:51.479Z,22.50
2017-11-23T14:37:19.064Z,22.50
2017-11-23T14:39:46.643Z,22.50
2017-11-23T14:42:14.248Z,22.40
2017-11-23T14:44:42.745Z,22.40
2017-11-23T14:47:11.158Z,22.40
2017-11-23T14:49:38.864Z,22.40
2017-11-23T14:52:06.426Z,22.40
2017-11-23T14:54:33.984Z,22.40
2017-11-23T14:57:01.549Z,22.30
2017-11-23T14:59:29.170Z,22.30
2017-11-23T15:01:56.744Z,22.30
2017-11-23T15:04:24.332Z,22.30
2017-11-23T15:06:51.955Z,22.30
2017-11-23T15:09:19.518Z,22.40
2017-11-23T15:11:47.173Z,22.40
2017-11-23T15:14:14.753Z,22.40
2017-11-23T15:16:42.306Z,22.40
2017-11-23T15:19:09.895Z,22.50
2017-11-23T15:21:37.606Z,22.50
2017-11-23T15:24:05.189Z,22.50
2017-11-23T15:26:32.798Z,22.50
2017-11-23T15:29:01.284Z,22.60
2017-11-23T15:31:29.751Z,22.60
2017-11-23T15:33:58.093Z,22.60
2017-11-23T15:36:25.674Z,22.60
2017-11-23T15:38:53.260Z,22.60
2017-11-23T15:41:20.856Z,22.60
2017-11-23T15:43:48.458Z,22.70
2017-11-23T15:46:16.014Z,22.70
2017-11-23T15:48:45.076Z,22.70
2017-11-23T15:51:12.652Z,22.70
2017-11-23T15:53:40.252Z,22.60
2017-11-23T15:56:08.684Z,22.60
2017-11-23T15:58:36.300Z,22.60
2017-11-23T16:01:03.858Z,22.60
2017-11-23T16:03:32.217Z,22.60
2017-11-23T16:05:59.766Z,22.60
2017-11-23T16:08:27.527Z,22.60
2017-11-23T16:10:55.292Z,22.60
2017-11-23T16:13:22.924Z,22.60
2017-11-23T16:15:50.474Z,22.60
2017-11-23T16:18:18.073Z,22.70
2017-11-23T16:20:45.665Z,22.70
2017-11-23T16:23:14.018Z,22.80
2017-11-23T16:25:41.586Z,22.80
2017-11-23T16:28:09.190Z,22.80
2017-11-23T16:30:36.752Z,22.90
2017-11-23T16:33:04.381Z,23.00
2017-11-23T16:35:31.982Z,23.00
2017-11-23T16:37:59.583Z,23.10
2017-11-23T16:40:42.056Z,23.10
2017-11-23T16:43:25.680Z,23.20
2017-11-23T16:46:04.839Z,23.20
2017-11-23T16:48:47.292Z,23.30
2017-11-23T16:51:20.536Z,23.30
2017-11-23T16:56:58.493Z,23.50
2017-11-23T16:59:32.396Z,23.50
2017-11-23T17:02:06.526Z,23.50
2017-11-23T17:04:39.702Z,23.50
2017-11-23T17:07:07.260Z,23.50
2017-11-23T17:09:41.178Z,23.60
2017-11-23T17:12:29.437Z,23.60
2017-11-23T17:15:02.630Z,23.60
2017-11-23T17:17:35.971Z,23.60
2017-11-23T17:20:03.654Z,23.60
2017-11-23T17:22:32.005Z,23.50
2017-11-23T17:24:59.593Z,23.50
2017-11-23T17:27:27.183Z,23.60
2017-11-23T17:29:54.762Z,23.70
2017-11-23T17:32:22.370Z,23.70
2017-11-23T17:34:49.996Z,23.70
2017-11-23T17:37:17.546Z,23.50
2017-11-23T17:39:45.114Z,23.40
2017-11-23T17:42:12.676Z,23.30
2017-11-23T17:44:40.253Z,23.30
2017-11-23T17:47:07.830Z,23.20
2017-11-23T17:49:35.430Z,23.00
2017-11-23T17:52:03.039Z,22.80
2017-11-23T17:54:30.605Z,22.80
2017-11-23T17:56:58.190Z,22.70
2017-11-23T17:59:26.580Z,22.60
2017-11-23T18:01:54.952Z,22.50
2017-11-23T18:04:23.295Z,22.50
2017-11-23T18:06:50.904Z,22.50
2017-11-23T18:09:18.452Z,22.40
2017-11-23T18:11:46.963Z,22.40
2017-11-23T18:14:15.363Z,22.20
2017-11-23T18:16:42.927Z,22.20
2017-11-23T18:19:10.764Z,22.30
2017-11-23T18:21:38.328Z,22.20
2017-11-23T18:24:06.078Z,22.20
2017-11-23T18:26:33.660Z,22.20
2017-11-23T18:29:01.213Z,22.20
2017-11-23T18:31:28.836Z,22.10
2017-11-23T18:33:57.221Z,22.00
2017-11-23T18:36:24.817Z,22.10
2017-11-23T18:38:52.417Z,22.10
2017-11-23T18:41:20.072Z,22.00
2017-11-23T18:43:47.749Z,22.10
2017-11-23T18:46:15.345Z,22.10
2017-11-23T18:48:42.940Z,22.10
2017-11-23T18:51:10.511Z,22.10
2017-11-23T18:53:38.126Z,22.20
2017-11-23T18:56:05.723Z,22.10
2017-11-23T18:58:33.294Z,22.20
2017-11-23T19:01:02.166Z,22.20
2017-11-23T19:03:29.745Z,22.20
2017-11-23T19:05:57.320Z,22.20
2017-11-23T19:08:25.686Z,22.20
2017-11-23T19:10:53.316Z,22.30
2017-11-23T19:13:20.890Z,22.30
2017-11-23T19:15:48.620Z,22.30
2017-11-23T19:18:16.183Z,22.30
2017-11-23T19:20:43.781Z,22.30
2017-11-23T19:23:11.428Z,22.30
2017-11-23T19:25:39.005Z,22.30
2017-11-23T19:28:06.590Z,22.40
2017-11-23T19:30:35.430Z,22.50
2017-11-23T19:33:02.987Z,22.50
2017-11-23T19:35:30.685Z,22.50
2017-11-23T19:37:58.273Z,22.60
2017-11-23T19:40:26.655Z,22.80
2017-11-23T19:42:54.238Z,22.80
2017-11-23T19:45:21.847Z,23.00
2017-11-23T19:47:49.433Z,23.20
2017-11-23T19:50:17.006Z,23.40
2017-11-23T19:52:44.666Z,23.60
2017-11-23T19:55:12.237Z,23.70
2017-11-23T19:57:39.852Z,23.80
2017-11-23T20:00:07.481Z,23.80
2017-11-23T20:02:35.080Z,23.80
2017-11-23T20:05:03.520Z,23.70
2017-11-23T20:07:31.123Z,23.60
2017-11-23T20:09:59.535Z,23.40
2017-11-23T20:12:27.115Z,23.40
2017-11-23T20:14:54.713Z,23.30
2017-11-23T20:17:23.182Z,23.10
2017-11-23T20:19:50.796Z,23.00
2017-11-23T20:22:18.365Z,23.00
2017-11-23T20:24:45.976Z,22.90
2017-11-23T20:27:13.553Z,22.80
2017-11-23T20:29:41.170Z,22.80
2017-11-23T20:32:08.728Z,22.70
2017-11-23T20:34:36.300Z,22.70
2017-11-23T20:37:03.893Z,22.60
2017-11-23T20:39:32.222Z,22.60
2017-11-23T20:41:59.845Z,22.60
2017-11-23T20:44:27.501Z,22.50
2017-11-23T20:46:55.075Z,22.50
2017-11-23T20:49:22.633Z,22.50
2017-11-23T20:51:50.249Z,22.50
2017-11-23T20:54:17.823Z,22.50
2017-11-23T20:56:46.215Z,22.40
2017-11-23T20:59:14.750Z,22.40
2017-11-23T21:01:42.405Z,22.40
2017-11-23T21:04:09.987Z,22.40
2017-11-23T21:06:37.539Z,22.30
2017-11-23T21:09:05.113Z,22.30
2017-11-23T21:11:33.465Z,22.20
2017-11-23T21:14:01.350Z,22.20
2017-11-23T21:16:29.694Z,22.20
2017-11-23T21:18:57.313Z,22.10
2017-11-23T21:21:25.645Z,22.10
2017-11-23T21:23:53.263Z,22.10
2017-11-23T21:26:20.843Z,22.10
2017-11-23T21:28:48.481Z,22.10
2017-11-23T21:31:16.075Z,22.10
2017-11-23T21:33:43.787Z,22.10
2017-11-23T21:36:12.418Z,22.10
2017-11-23T21:38:39.970Z,22.00
2017-11-23T21:41:07.597Z,22.10
2017-11-23T21:43:35.985Z,22.10
2017-11-23T21:46:03.891Z,22.00
2017-11-23T21:48:31.640Z,22.00
2017-11-23T21:50:59.237Z,22.00
2017-11-23T21:53:26.829Z,22.00
2017-11-23T21:55:55.157Z,22.00
2017-11-23T21:58:22.839Z,22.00
2017-11-23T22:00:51.934Z,21.90
2017-11-23T22:03:19.511Z,21.90
2017-11-23T22:05:47.944Z,21.90
2017-11-23T22:08:15.560Z,21.90
2017-11-23T22:10:43.909Z,21.90
2017-11-23T22:13:12.316Z,21.80
2017-11-23T22:15:40.665Z,21.80
2017-11-23T22:18:08.257Z,21.80
2017-11-23T22:20:36.594Z,21.80
2017-11-23T22:23:04.547Z,21.80
2017-11-23T22:25:32.121Z,21.80
2017-11-23T22:27:59.698Z,21.80
2017-11-23T22:30:27.273Z,21.80
2017-11-23T22:32:55.709Z,21.80
2017-11-23T22:35:23.453Z,21.80
2017-11-23T22:37:51.033Z,21.80
2017-11-23T22:40:18.605Z,21.80
2017-11-23T22:42:46.212Z,21.80
2017-11-23T22:45:13.872Z,21.80
2017-11-23T22:47:41.460Z,21.80
2017-11-23T22:50:09.043Z,21.80
2017-11-23T22:52:36.624Z,21.80
2017-11-23T22:55:04.221Z,21.80
2017-11-23T22:57:31.828Z,21.80
2017-11-23T22:59:59.393Z,21.80
2017-11-23T23:02:26.981Z,21.80
2017-11-23T23:04:55.340Z,21.70
2017-11-23T23:07:22.897Z,21.70
2017-11-23T23:09:50.450Z,21.70
2017-11-23T23:12:18.103Z,21.70
2017-11-23T23:14:45.683Z,21.70
2017-11-23T23:17:13.418Z,21.70
2017-11-23T23:19:41.031Z,21.80
2017-11-23T23:22:09.445Z,21.70
2017-11-23T23:24:37.030Z,21.70
2017-11-23T23:27:04.591Z,21.70
2017-11-23T23:29:32.215Z,21.70
2017-11-23T23:32:00.489Z,21.70
2017-11-23T23:34:28.071Z,21.70
2017-11-23T23:36:55.673Z,21.70
2017-11-23T23:39:23.214Z,21.80
2017-11-23T23:41:50.813Z,21.80
2017-11-23T23:44:18.379Z,21.80
2017-11-23T23:46:45.929Z,21.80
2017-11-23T23:49:14.275Z,21.80
2017-11-23T23:51:41.837Z,21.90
2017-11-23T23:54:09.392Z,21.80
2017-11-23T23:56:36.979Z,21.90
2017-11-23T23:59:05.317Z,21.90
